createdAt,value
2022-09-12T00:01:47.101Z,9.85
2022-09-12T00:04:48.686Z,7.97
2022-09-12T00:07:50.281Z,10.30
2022-09-12T00:10:51.948Z,8.90
2022-09-12T00:14:01.353Z,8.88
2022-09-12T00:17:03.303Z,9.38
2022-09-12T00:20:09.392Z,10.23
2022-09-12T00:23:11.793Z,9.48
2022-09-12T00:26:13.906Z,10.20
2022-09-12T00:35:19.306Z,8.90
2022-09-12T00:38:21.362Z,8.35
2022-09-12T00:41:31.781Z,7.70
2022-09-12T00:44:35.953Z,10.23
2022-09-12T00:47:37.861Z,16.08
2022-09-12T00:50:39.316Z,9.05
2022-09-12T00:53:44.325Z,8.18
2022-09-12T00:56:48.211Z,7.90
2022-09-12T00:59:58.832Z,10.70
2022-09-12T01:03:04.547Z,8.30
2022-09-12T01:06:14.095Z,8.88
2022-09-12T01:09:22.249Z,7.72
2022-09-12T01:12:24.357Z,13.02
2022-09-12T01:18:50.263Z,8.00
2022-09-12T01:22:16.621Z,8.43
2022-09-12T01:25:56.128Z,9.02
2022-09-12T01:29:31.366Z,7.95
2022-09-12T01:32:55.042Z,11.48
2022-09-12T01:36:34.651Z,9.98
2022-09-12T01:39:51.411Z,9.63
2022-09-12T01:43:03.179Z,8.43
2022-09-12T01:46:19.294Z,8.93
2022-09-12T01:49:25.832Z,10.60
2022-09-12T01:52:36.103Z,8.07
2022-09-12T01:55:46.394Z,11.57
2022-09-12T01:58:53.980Z,9.65
2022-09-12T02:02:12.937Z,11.10
2022-09-12T02:05:34.503Z,13.00
2022-09-12T02:08:43.526Z,7.97
2022-09-12T02:11:47.225Z,7.65
2022-09-12T02:14:54.652Z,9.82
2022-09-12T02:18:01.316Z,10.88
2022-09-12T02:21:06.101Z,10.55
2022-09-12T02:24:10.236Z,7.38
2022-09-12T02:27:16.606Z,11.13
2022-09-12T02:30:19.422Z,12.05
2022-09-12T02:33:28.862Z,11.43
2022-09-12T02:37:00.557Z,10.32
2022-09-12T02:40:02.367Z,13.07
2022-09-12T02:43:06.277Z,10.65
2022-09-12T02:46:13.729Z,11.05
2022-09-12T02:49:17.238Z,9.10
2022-09-12T02:52:19.658Z,11.98
2022-09-12T02:55:21.478Z,8.93
2022-09-12T02:58:27.011Z,9.90
2022-09-12T03:01:43.601Z,8.95
2022-09-12T03:05:02.626Z,8.27
2022-09-12T03:08:32.544Z,11.43
2022-09-12T03:12:02.463Z,9.20
2022-09-12T03:15:34.372Z,10.00
2022-09-12T03:18:44.881Z,10.45
2022-09-12T03:21:58.089Z,8.80
2022-09-12T03:25:20.758Z,9.30
2022-09-12T03:28:24.178Z,8.43
2022-09-12T03:31:26.004Z,11.60
2022-09-12T03:34:28.309Z,11.10
2022-09-12T03:37:29.723Z,11.07
2022-09-12T03:40:31.122Z,10.85
2022-09-12T03:43:32.569Z,8.47
2022-09-12T03:46:34.477Z,8.47
2022-09-12T03:49:35.892Z,8.77
2022-09-12T03:52:37.412Z,9.10
2022-09-12T03:55:39.016Z,11.05
2022-09-12T03:58:40.566Z,11.38
2022-09-12T04:01:42.373Z,12.13
2022-09-12T04:04:44.147Z,12.10
2022-09-12T04:07:45.565Z,10.02
2022-09-12T04:10:47.056Z,8.53
2022-09-12T04:13:49.063Z,9.45
2022-09-12T04:19:52.018Z,8.68
2022-09-12T04:22:53.412Z,9.00
2022-09-12T04:26:00.404Z,9.03
2022-09-12T04:29:01.806Z,7.85
2022-09-12T04:32:03.783Z,10.00
2022-09-12T04:35:05.404Z,9.85
2022-09-12T04:38:07.083Z,8.32
2022-09-12T04:41:13.599Z,10.45
2022-09-12T04:44:15.488Z,11.23
2022-09-12T04:47:16.938Z,8.73
2022-09-12T04:50:19.091Z,10.17
2022-09-12T04:53:20.490Z,9.88
2022-09-12T04:56:22.724Z,10.40
2022-09-12T05:02:25.719Z,11.55
2022-09-12T05:05:27.412Z,10.75
2022-09-12T05:08:28.992Z,12.65
2022-09-12T05:12:02.583Z,12.35
2022-09-12T05:14:57.793Z,8.77
2022-09-12T05:17:59.211Z,10.07
2022-09-12T05:21:02.110Z,12.53
2022-09-12T05:24:06.088Z,10.05
2022-09-12T05:27:07.476Z,11.98
2022-09-12T05:30:09.671Z,13.00
2022-09-12T05:33:11.640Z,10.73
2022-09-12T05:36:19.224Z,9.90
2022-09-12T05:39:20.948Z,10.20
2022-09-12T05:42:23.408Z,10.80
2022-09-12T05:45:25.134Z,10.32
2022-09-12T05:48:26.561Z,18.02
2022-09-12T05:51:31.841Z,10.00
2022-09-12T05:54:34.343Z,10.60
2022-09-12T05:57:36.359Z,12.30
2022-09-12T06:00:37.763Z,11.50
2022-09-12T06:03:44.659Z,10.07
2022-09-12T06:06:46.715Z,11.38
2022-09-12T06:09:48.113Z,14.07
2022-09-12T06:12:49.529Z,10.83
2022-09-12T06:15:51.279Z,11.37
2022-09-12T06:18:55.412Z,12.07
2022-09-12T06:21:57.083Z,10.68
2022-09-12T06:24:58.503Z,10.85
2022-09-12T06:28:00.004Z,13.00
2022-09-12T06:31:12.447Z,10.43
2022-09-12T06:34:15.600Z,11.23
2022-09-12T06:37:17.016Z,13.43
2022-09-12T06:40:18.453Z,9.88
2022-09-12T06:43:19.921Z,10.18
2022-09-12T06:46:23.429Z,11.90
2022-09-12T06:52:29.519Z,9.97
2022-09-12T06:55:30.969Z,9.27
2022-09-12T06:58:33.313Z,12.57
2022-09-12T07:01:34.817Z,10.98
2022-09-12T07:04:37.105Z,10.60
2022-09-12T07:10:39.946Z,11.88
2022-09-12T07:13:43.769Z,10.70
2022-09-12T07:16:45.395Z,11.40
2022-09-12T07:19:47.473Z,12.10
2022-09-12T07:22:50.350Z,10.45
2022-09-12T07:25:59.221Z,10.73
2022-09-12T07:29:19.034Z,12.10
2022-09-12T07:32:25.980Z,12.93
2022-09-12T07:35:28.518Z,13.18
2022-09-12T07:38:30.437Z,11.80
2022-09-12T07:41:35.464Z,11.65
2022-09-12T07:44:36.933Z,12.75
2022-09-12T07:47:38.353Z,12.95
2022-09-12T07:50:44.996Z,10.80
2022-09-12T07:53:47.516Z,11.88
2022-09-12T07:56:49.073Z,13.35
2022-09-12T07:59:52.810Z,11.15
2022-09-12T08:02:55.109Z,11.73
2022-09-12T08:06:03.802Z,12.00
2022-09-12T08:09:06.045Z,12.50
2022-09-12T08:12:07.732Z,9.30
2022-09-12T08:15:09.574Z,13.02
2022-09-12T08:18:11.511Z,11.25
2022-09-12T08:21:18.336Z,10.38
2022-09-12T08:24:19.736Z,9.35
2022-09-12T08:27:21.140Z,11.57
2022-09-12T08:30:22.555Z,10.50
2022-09-12T08:33:27.281Z,10.88
2022-09-12T08:36:29.558Z,10.18
2022-09-12T08:39:32.633Z,9.70
2022-09-12T08:42:53.466Z,11.77
2022-09-12T08:46:04.140Z,10.52
2022-09-12T08:49:11.736Z,9.05
2022-09-12T08:52:22.369Z,10.25
2022-09-12T08:55:32.888Z,9.40
2022-09-12T08:58:40.665Z,11.25
2022-09-12T09:01:45.275Z,9.45
2022-09-12T09:05:03.351Z,9.35
2022-09-12T09:08:26.754Z,10.30
2022-09-12T09:11:45.906Z,8.25
2022-09-12T09:14:56.349Z,11.35
2022-09-12T09:18:04.179Z,8.90
2022-09-12T09:21:31.747Z,8.65
2022-09-12T09:24:38.545Z,9.52
2022-09-12T09:27:51.973Z,8.98
2022-09-12T09:30:53.748Z,8.52
2022-09-12T09:33:55.517Z,12.43
2022-09-12T09:37:20.010Z,11.73
2022-09-12T09:40:41.555Z,8.90
2022-09-12T09:43:42.992Z,9.55
2022-09-12T09:46:44.557Z,11.65
2022-09-12T09:49:46.396Z,8.57
2022-09-12T09:52:50.631Z,9.48
2022-09-12T09:55:55.630Z,10.57
2022-09-12T09:58:57.107Z,10.45
2022-09-12T10:02:03.667Z,8.70
2022-09-12T10:05:05.619Z,9.20
2022-09-12T10:08:07.816Z,8.88
2022-09-12T10:11:12.476Z,8.57
2022-09-12T10:14:36.889Z,7.82
2022-09-12T10:17:49.390Z,9.98
2022-09-12T10:20:50.853Z,9.65
2022-09-12T10:24:00.219Z,9.50
2022-09-12T10:27:19.178Z,8.32
2022-09-12T10:30:24.806Z,10.98
2022-09-12T10:33:27.077Z,10.05
2022-09-12T10:36:39.605Z,8.07
2022-09-12T10:39:41.847Z,8.52
2022-09-12T10:42:52.823Z,11.02
2022-09-12T10:45:59.306Z,8.15
2022-09-12T10:49:24.109Z,7.32
2022-09-12T10:52:25.913Z,10.35
2022-09-12T10:58:47.284Z,7.63
2022-09-12T11:01:59.736Z,7.80
2022-09-12T11:05:27.309Z,6.70
2022-09-12T11:08:49.247Z,7.57
2022-09-12T11:12:22.131Z,8.63
2022-09-12T11:15:36.435Z,7.25
2022-09-12T11:19:15.406Z,14.70
2022-09-12T11:22:37.747Z,5.90
2022-09-12T11:25:51.507Z,6.38
2022-09-12T11:29:34.244Z,6.35
2022-09-12T11:32:53.844Z,6.50
2022-09-12T11:35:57.519Z,8.50
2022-09-12T11:39:27.580Z,5.35
2022-09-12T11:42:34.250Z,6.22
2022-09-12T11:45:42.786Z,5.30
2022-09-12T11:48:53.096Z,8.55
2022-09-12T11:52:06.922Z,6.35
2022-09-12T11:55:19.497Z,5.72
2022-09-12T11:58:25.597Z,7.78
2022-09-12T12:01:42.907Z,7.32
2022-09-12T12:05:03.373Z,5.68
2022-09-12T12:08:06.241Z,6.07
2022-09-12T12:11:08.829Z,6.82
2022-09-12T12:14:19.565Z,5.03
2022-09-12T12:17:24.109Z,4.68
2022-09-12T12:20:27.205Z,7.60
2022-09-12T12:23:34.910Z,7.10
2022-09-12T12:26:39.800Z,7.15
2022-09-12T12:29:44.309Z,4.65
2022-09-12T12:32:46.004Z,5.13
2022-09-12T12:35:59.481Z,7.07
2022-09-12T12:39:33.031Z,4.53
2022-09-12T12:42:37.021Z,3.83
2022-09-12T12:45:38.362Z,4.07
2022-09-12T12:49:09.647Z,6.68
2022-09-12T12:52:18.509Z,4.70
2022-09-12T12:55:27.521Z,5.00
2022-09-12T12:58:35.009Z,8.60
2022-09-12T13:01:40.951Z,5.95
2022-09-12T13:04:44.716Z,5.35
2022-09-12T13:07:48.141Z,4.45
2022-09-12T13:10:53.683Z,4.60
2022-09-12T13:14:00.561Z,5.13
2022-09-12T13:17:06.313Z,5.32
2022-09-12T13:20:30.142Z,4.00
2022-09-12T13:23:32.833Z,7.72
2022-09-12T13:26:43.265Z,7.10
2022-09-12T13:29:44.715Z,4.95
2022-09-12T13:32:46.147Z,4.60
2022-09-12T13:36:32.162Z,5.20
2022-09-12T13:39:46.551Z,4.60
2022-09-12T13:42:51.594Z,9.77
2022-09-12T13:45:53.363Z,4.82
2022-09-12T13:48:54.923Z,6.47
2022-09-12T13:52:02.014Z,4.97
2022-09-12T13:55:14.677Z,5.38
2022-09-12T13:58:26.942Z,3.88
2022-09-12T14:01:46.365Z,4.47
2022-09-12T14:05:09.247Z,3.65
2022-09-12T14:08:15.281Z,3.78
2022-09-12T14:11:28.454Z,4.95
2022-09-12T14:14:36.503Z,4.38
2022-09-12T14:17:39.593Z,5.10
2022-09-12T14:20:41.917Z,3.55
2022-09-12T14:23:47.784Z,4.50
2022-09-12T14:26:50.886Z,5.47
2022-09-12T14:30:07.446Z,4.80
2022-09-12T14:33:11.700Z,5.03
2022-09-12T14:36:19.706Z,5.72
2022-09-12T14:39:37.647Z,4.03
2022-09-12T14:42:42.453Z,3.40
2022-09-12T14:45:44.010Z,5.63
2022-09-12T14:48:58.757Z,3.70
2022-09-12T14:52:03.603Z,7.55
2022-09-12T14:55:29.799Z,5.65
2022-09-12T14:58:31.430Z,5.53
2022-09-12T15:01:32.926Z,5.80
2022-09-12T15:04:38.238Z,5.70
2022-09-12T15:07:42.498Z,3.15
2022-09-12T15:10:43.959Z,5.30
2022-09-12T15:13:45.412Z,6.15
2022-09-12T15:16:46.899Z,4.00
2022-09-12T15:19:48.328Z,3.83
2022-09-12T15:22:50.355Z,4.55
2022-09-12T15:25:52.310Z,4.75
2022-09-12T15:28:53.949Z,4.13
2022-09-12T15:34:56.797Z,6.20
2022-09-12T15:37:58.405Z,5.95
2022-09-12T15:41:00.133Z,6.35
2022-09-12T15:47:05.732Z,5.45
2022-09-12T15:53:16.629Z,3.88
2022-09-12T15:56:21.132Z,4.30
2022-09-12T15:59:22.561Z,5.25
2022-09-12T16:02:24.088Z,8.18
2022-09-12T16:05:26.480Z,4.35
2022-09-12T16:08:31.322Z,6.07
2022-09-12T16:11:33.035Z,3.97
2022-09-12T16:14:34.554Z,3.78
2022-09-12T16:17:35.981Z,5.97
2022-09-12T16:20:40.159Z,6.13
2022-09-12T16:23:45.504Z,6.03
2022-09-12T16:26:47.207Z,5.13
2022-09-12T16:32:52.070Z,6.43
2022-09-12T16:35:55.042Z,5.95
2022-09-12T16:38:56.514Z,5.38
2022-09-12T16:41:58.127Z,8.15
2022-09-12T16:44:59.573Z,5.78
2022-09-12T16:48:01.106Z,5.45
2022-09-12T16:51:05.305Z,5.28
2022-09-12T16:54:06.706Z,7.32
2022-09-12T16:57:08.196Z,11.18
2022-09-12T17:00:10.233Z,4.30
2022-09-12T17:03:11.719Z,5.55
2022-09-12T17:06:16.446Z,7.20
2022-09-12T17:09:18.629Z,7.30
2022-09-12T17:12:20.145Z,8.20
2022-09-12T17:15:21.614Z,7.40
2022-09-12T17:18:23.552Z,6.45
2022-09-12T17:21:25.002Z,6.53
2022-09-12T17:24:26.730Z,6.35
2022-09-12T17:30:29.596Z,6.40
2022-09-12T17:33:32.046Z,6.60
2022-09-12T17:36:33.964Z,8.18
2022-09-12T17:39:35.460Z,11.88
2022-09-12T17:42:36.901Z,5.55
2022-09-12T17:45:38.893Z,11.25
2022-09-12T17:48:40.312Z,6.53
2022-09-12T17:51:43.486Z,5.13
2022-09-12T17:54:45.223Z,6.93
2022-09-12T17:57:46.777Z,7.03
2022-09-12T18:01:06.825Z,6.72
2022-09-12T18:04:08.398Z,8.63
2022-09-12T18:07:10.576Z,10.27
2022-09-12T18:10:12.162Z,7.30
2022-09-12T18:13:13.985Z,7.97
2022-09-12T18:19:17.280Z,7.23
2022-09-12T18:22:18.777Z,7.45
2022-09-12T18:25:20.624Z,6.38
2022-09-12T18:28:22.153Z,5.10
2022-09-12T18:31:28.010Z,9.70
2022-09-12T18:34:29.596Z,5.25
2022-09-12T18:37:31.054Z,7.53
2022-09-12T18:40:32.462Z,4.68
2022-09-12T18:43:34.065Z,6.47
2022-09-12T18:46:35.766Z,5.55
2022-09-12T18:52:38.606Z,6.40
2022-09-12T18:55:40.168Z,7.40
2022-09-12T18:58:43.331Z,7.05
2022-09-12T19:01:45.356Z,8.13
2022-09-12T19:04:46.997Z,6.85
2022-09-12T19:07:48.717Z,7.40
2022-09-12T19:13:58.044Z,6.55
2022-09-12T19:16:59.663Z,6.15
2022-09-12T19:20:01.344Z,7.43
2022-09-12T19:23:02.939Z,6.50
2022-09-12T19:26:08.484Z,5.47
2022-09-12T19:29:11.585Z,6.75
2022-09-12T19:32:13.116Z,8.00
2022-09-12T19:35:14.599Z,5.00
2022-09-12T19:38:16.848Z,11.32
2022-09-12T19:41:19.055Z,5.75
2022-09-12T19:44:20.499Z,8.15
2022-09-12T19:47:22.002Z,5.43
2022-09-12T19:50:23.660Z,7.15
2022-09-12T19:53:25.126Z,6.18
2022-09-12T19:56:27.024Z,9.25
2022-09-12T19:59:28.491Z,7.70
2022-09-12T20:02:30.237Z,7.80
2022-09-12T20:05:33.391Z,11.38
2022-09-12T20:08:40.759Z,7.25
2022-09-12T20:11:42.296Z,5.05
2022-09-12T20:14:43.813Z,10.48
2022-09-12T20:17:45.341Z,9.50
2022-09-12T20:20:46.907Z,8.23
2022-09-12T20:23:48.627Z,8.13
2022-09-12T20:26:50.178Z,7.05
2022-09-12T20:29:53.194Z,6.88
2022-09-12T20:32:55.136Z,7.65
2022-09-12T20:36:09.240Z,5.55
2022-09-12T20:39:16.498Z,10.18
2022-09-12T20:42:17.947Z,5.93
2022-09-12T20:45:19.340Z,8.05
2022-09-12T20:48:20.961Z,5.82
2022-09-12T20:51:24.460Z,8.65
2022-09-12T20:54:25.866Z,4.85
2022-09-12T20:57:28.648Z,5.40
2022-09-12T21:00:32.115Z,7.28
2022-09-12T21:03:37.474Z,5.68
2022-09-12T21:06:39.197Z,7.75
2022-09-12T21:09:40.583Z,6.93
2022-09-12T21:12:42.063Z,4.90
2022-09-12T21:15:43.535Z,6.68
2022-09-12T21:18:46.694Z,6.07
2022-09-12T21:21:48.258Z,7.28
2022-09-12T21:24:49.723Z,7.03
2022-09-12T21:27:51.206Z,7.35
2022-09-12T21:30:53.030Z,5.07
2022-09-12T21:33:54.451Z,5.13
2022-09-12T21:36:56.031Z,5.35
2022-09-12T21:39:59.000Z,6.20
2022-09-12T21:43:00.837Z,5.90
2022-09-12T21:46:03.218Z,10.10
2022-09-12T21:49:04.725Z,6.13
2022-09-12T21:52:06.716Z,7.18
2022-09-12T22:01:12.557Z,6.27
2022-09-12T22:04:14.042Z,8.27
2022-09-12T22:07:19.070Z,4.95
2022-09-12T22:10:20.469Z,5.40
2022-09-12T22:13:21.916Z,7.07
2022-09-12T22:16:23.587Z,8.30
2022-09-12T22:19:25.036Z,5.35
2022-09-12T22:22:45.212Z,6.20
2022-09-12T22:25:46.997Z,6.30
2022-09-12T22:28:49.188Z,7.63
2022-09-12T22:31:50.753Z,6.88
2022-09-12T22:34:52.184Z,5.63
2022-09-12T22:37:53.581Z,6.88
2022-09-12T22:40:55.306Z,6.93
2022-09-12T22:43:57.637Z,9.02
2022-09-12T22:46:59.187Z,5.70
2022-09-12T22:50:00.739Z,6.57
2022-09-12T22:53:02.127Z,5.88
2022-09-12T22:56:05.097Z,6.60
2022-09-12T22:59:06.850Z,7.22
2022-09-12T23:02:08.451Z,6.18
2022-09-12T23:05:09.881Z,7.35
2022-09-12T23:08:11.680Z,8.75
2022-09-12T23:11:15.447Z,7.35
2022-09-12T23:14:17.478Z,6.07
2022-09-12T23:17:18.977Z,5.53
2022-09-12T23:20:20.365Z,9.48
2022-09-12T23:23:21.776Z,5.63
2022-09-12T23:26:24.877Z,5.40
2022-09-12T23:29:27.007Z,7.20
2022-09-12T23:32:28.398Z,6.03
2022-09-12T23:35:29.799Z,6.45
2022-09-12T23:38:32.581Z,7.20
2022-09-12T23:41:34.003Z,7.75
2022-09-12T23:44:35.412Z,6.43
2022-09-12T23:47:36.917Z,6.13
2022-09-12T23:50:38.384Z,6.32
2022-09-12T23:53:39.995Z,6.53
2022-09-12T23:56:41.425Z,6.40
2022-09-12T23:59:42.887Z,5.70
